Portada
METAR-TAF:

METAR-TAF

Aeropuertos :

Marion County Regional Airport

Flippin, Arkansas, Estados Unidos

latitud: 36-18N, longitud: 092-28W, altitud: 350 m

Observación

El informe se hizo hace 43 minutos, a las 08:20 UTC
Viento calma
Temperatura 22°C
Humedad 100%
Presión 1015 hPa
Visibilidad: 4.8 km
Cielo despejado
neblina

METAR: KFLP 060820Z AUTO 00000KT 3SM BR CLR 22/22 A2997 RMK AO2

Hora: 04:03 (09:03 UTC)


TAF: falta

Observaciones y pronósticos meteorológicos de más de 4000 aeropuertos (mensajes METAR y TAF).

Los puntos amarillos y rojos representan las estaciones disponibles.

Ponga el ratón en el punto deseado para ver el nombre de la estación.

Haga clic para ver las observaciones y los pronósticos meteorológicos.

Para cambiar el mapa : haga clic en los botones verdes con una cruz de color negro para hacer un zoom, en el botón verde con un guión para alejar o en las flechas verdes para mapas adyacentes.


METAR-TAF: